Time;durP1;ratioP1;P1;durP2;ratioP2;P2;SDS_P1;SDS_P2;PMS_P1;PMS_P2;Temp;Humidity;BMP_temperature;BMP_pressure;BME280_temperature;BME280_humidity;BME280_pressure;Samples;Min_cycle;Max_cycle;Signal;HPM_P1;HPM_P2
2021/08/30 04:15:14;;;;;;;16.15;14.10;;;;;;;13.81;100.00;98593.91;5980192;23;21072;-75
2021/08/30 04:17:39;;;;;;;17.33;11.70;;;;;;;13.75;100.00;98598.50;4933855;29;20043;-75
2021/08/30 04:20:05;;;;;;;17.25;10.68;;;;;;;13.88;100.00;98592.81;4934559;29;20110;-75
2021/08/30 04:22:35;;;;;;;14.35;12.15;;;;;;;13.75;100.00;98598.50;4934536;29;20032;-75
2021/08/30 04:25:00;;;;;;;18.45;12.18;;;;;;;13.80;100.00;98591.38;4934810;29;20168;-75
2021/08/30 04:27:25;;;;;;;16.02;12.57;;;;;;;13.78;100.00;98583.63;4934530;29;20115;-75
2021/08/30 04:29:51;;;;;;;17.60;12.27;;;;;;;13.76;100.00;98590.63;4934940;29;20094;-72
2021/08/30 04:32:16;;;;;;;16.83;12.52;;;;;;;13.66;100.00;98598.78;4934195;29;20480;-72
2021/08/30 04:34:42;;;;;;;15.82;12.48;;;;;;;13.79;100.00;98594.88;4934606;29;20023;-72
2021/08/30 04:37:07;;;;;;;16.83;12.75;;;;;;;13.80;100.00;98596.59;4934629;29;20098;-75
2021/08/30 04:39:33;;;;;;;19.48;13.52;;;;;;;13.77;100.00;98596.69;4934627;29;20385;-75
2021/08/30 04:41:59;;;;;;;15.43;12.48;;;;;;;13.77;100.00;98591.47;4934299;29;20030;-75
2021/08/30 04:44:25;;;;;;;18.25;12.82;;;;;;;13.81;100.00;98603.47;4934584;29;20032;-74
2021/08/30 04:46:50;;;;;;;20.85;12.88;;;;;;;13.95;100.00;98605.63;4934314;29;20035;-74
2021/08/30 04:49:15;;;;;;;15.35;12.57;;;;;;;13.92;100.00;98598.75;4934474;29;20350;-72
2021/08/30 04:51:41;;;;;;;15.93;12.98;;;;;;;13.96;100.00;98597.75;4934258;29;20059;-72
2021/08/30 04:54:06;;;;;;;17.02;12.52;;;;;;;13.97;100.00;98599.44;4934367;29;20035;-75
2021/08/30 04:56:31;;;;;;;17.30;12.80;;;;;;;13.86;100.00;98601.56;4934263;29;20070;-75
2021/08/30 04:58:57;;;;;;;16.95;13.57;;;;;;;13.90;100.00;98597.97;4936021;29;20182;-74
2021/08/30 05:01:24;;;;;;;19.48;13.57;;;;;;;13.97;100.00;98607.25;4937668;29;20492;-72
2021/08/30 05:03:50;;;;;;;17.25;13.27;;;;;;;14.02;100.00;98601.88;4937710;29;20504;-72
2021/08/30 05:06:15;;;;;;;15.00;11.80;;;;;;;13.92;100.00;98601.34;4937717;29;20075;-74
2021/08/30 05:08:40;;;;;;;13.30;11.45;;;;;;;13.97;100.00;98604.66;4937709;29;20032;-75
2021/08/30 05:11:06;;;;;;;15.57;12.73;;;;;;;13.91;100.00;98610.09;4938229;29;20080;-77
2021/08/30 05:13:31;;;;;;;20.80;13.50;;;;;;;13.93;100.00;98605.69;4937336;29;20035;-77
2021/08/30 05:15:56;;;;;;;13.98;11.73;;;;;;;13.94;100.00;98610.00;4937466;29;20144;-76
2021/08/30 05:18:22;;;;;;;13.13;11.07;;;;;;;13.91;100.00;98612.69;4937497;29;20036;-77
2021/08/30 05:20:49;;;;;;;15.90;10.75;;;;;;;13.95;100.00;98616.88;4937454;29;20027;-75
2021/08/30 05:23:16;;;;;;;15.88;11.75;;;;;;;13.90;100.00;98611.00;4937708;29;20023;-74
2021/08/30 05:25:42;;;;;;;13.25;10.18;;;;;;;13.92;100.00;98606.56;4937432;29;20102;-74
2021/08/30 05:28:07;;;;;;;16.27;12.20;;;;;;;13.93;100.00;98607.44;4936249;29;20111;-74
2021/08/30 05:30:32;;;;;;;15.43;11.20;;;;;;;14.01;100.00;98611.47;4937414;29;20027;-74
2021/08/30 05:32:58;;;;;;;14.32;10.75;;;;;;;14.06;100.00;98619.97;4937239;29;20460;-74
2021/08/30 05:35:23;;;;;;;11.57;9.07;;;;;;;14.07;100.00;98621.69;4937055;29;20043;-74
2021/08/30 05:37:48;;;;;;;10.15;8.43;;;;;;;14.04;100.00;98627.00;4937420;29;20035;-76
2021/08/30 05:40:14;;;;;;;12.57;8.82;;;;;;;14.14;100.00;98623.16;4937221;29;20062;-77
2021/08/30 05:42:40;;;;;;;12.82;9.07;;;;;;;14.17;100.00;98623.94;4936951;29;20393;-77
2021/08/30 05:45:06;;;;;;;13.75;8.55;;;;;;;14.13;100.00;98621.47;4937035;29;20020;-74
2021/08/30 05:47:31;;;;;;;9.93;8.88;;;;;;;14.08;100.00;98617.34;4936919;29;20063;-73
2021/08/30 05:49:56;;;;;;;8.63;7.72;;;;;;;14.07;100.00;98619.09;4936860;29;20055;-74
2021/08/30 05:52:24;;;;;;;13.45;9.70;;;;;;;14.05;100.00;98620.03;4937003;29;20028;-73
2021/08/30 05:54:49;;;;;;;13.23;10.27;;;;;;;14.13;100.00;98618.88;4936807;29;20024;-76
2021/08/30 05:57:15;;;;;;;11.43;10.23;;;;;;;14.05;100.00;98620.03;4936905;29;20441;-75
2021/08/30 05:59:40;;;;;;;11.77;9.95;;;;;;;14.10;100.00;98620.72;4936875;29;20481;-72
2021/08/30 06:02:06;;;;;;;14.35;10.35;;;;;;;14.11;100.00;98620.66;4936415;29;20474;-77
2021/08/30 06:04:32;;;;;;;13.43;9.48;;;;;;;14.17;100.00;98621.34;4936716;29;20074;-77
2021/08/30 06:06:57;;;;;;;11.45;9.60;;;;;;;14.11;100.00;98631.06;4936730;29;20378;-73
2021/08/30 06:09:22;;;;;;;11.57;9.35;;;;;;;14.14;100.00;98628.38;4936619;29;20465;-74
2021/08/30 06:11:50;;;;;;;11.48;10.02;;;;;;;14.31;100.00;98630.41;4935869;29;20109;-73
2021/08/30 06:14:15;;;;;;;15.18;11.40;;;;;;;14.25;100.00;98632.38;4920336;29;20026;-74
2021/08/30 06:16:41;;;;;;;14.00;11.77;;;;;;;14.25;100.00;98634.97;4925654;29;20035;-74
2021/08/30 06:19:06;;;;;;;14.00;11.68;;;;;;;14.16;100.00;98630.91;4936312;29;20163;-74
2021/08/30 06:21:31;;;;;;;12.20;10.52;;;;;;;14.10;100.00;98634.59;4930466;29;20054;-74
2021/08/30 06:23:57;;;;;;;13.55;10.48;;;;;;;14.26;100.00;98631.44;4936247;29;20098;-74
2021/08/30 06:26:22;;;;;;;14.02;11.00;;;;;;;14.31;100.00;98634.75;4935914;29;20031;-74
2021/08/30 06:28:47;;;;;;;14.80;11.48;;;;;;;14.47;100.00;98635.91;4936044;29;20512;-76
2021/08/30 06:31:13;;;;;;;12.85;10.35;;;;;;;14.72;100.00;98627.22;4934444;29;20027;-77
2021/08/30 06:33:38;;;;;;;13.07;9.27;;;;;;;15.04;100.00;98634.69;4935086;29;20030;-77
2021/08/30 06:36:03;;;;;;;9.88;8.63;;;;;;;15.22;100.00;98637.50;4934903;29;20027;-73
2021/08/30 06:38:29;;;;;;;9.23;7.75;;;;;;;15.21;100.00;98628.81;4930294;29;20032;-77
2021/08/30 06:40:54;;;;;;;8.25;7.45;;;;;;;15.29;100.00;98636.34;4934008;29;20027;-77
2021/08/30 06:43:19;;;;;;;9.90;8.13;;;;;;;15.25;100.00;98629.56;4934079;29;20095;-77
2021/08/30 06:45:45;;;;;;;10.15;7.68;;;;;;;15.02;100.00;98643.47;4935490;29;20035;-77
2021/08/30 06:48:10;;;;;;;11.45;8.70;;;;;;;15.11;100.00;98638.75;4935602;29;20102;-77
2021/08/30 06:50:35;;;;;;;8.90;7.97;;;;;;;15.40;100.00;98639.38;4935931;29;20107;-77
2021/08/30 06:53:01;;;;;;;9.30;8.35;;;;;;;15.49;99.73;98633.78;4935491;29;20094;-75
2021/08/30 06:55:26;;;;;;;11.20;8.32;;;;;;;15.45;98.92;98629.59;4935110;29;20059;-75
2021/08/30 06:57:52;;;;;;;12.85;8.55;;;;;;;15.32;100.00;98634.44;4933479;29;20465;-75
2021/08/30 07:00:18;;;;;;;10.98;9.07;;;;;;;15.34;100.00;98637.88;4935445;29;20034;-75
2021/08/30 07:02:44;;;;;;;9.90;8.30;;;;;;;15.55;99.01;98636.16;4935649;29;20034;-75
2021/08/30 07:05:10;;;;;;;11.32;8.45;;;;;;;15.58;100.00;98636.03;4935465;29;20024;-74
2021/08/30 07:07:35;;;;;;;13.23;8.63;;;;;;;15.47;100.00;98635.59;4935453;29;20436;-75
2021/08/30 07:10:01;;;;;;;10.95;9.32;;;;;;;15.22;100.00;98640.09;4935611;29;20091;-74
2021/08/30 07:12:26;;;;;;;12.45;9.65;;;;;;;15.15;100.00;98639.50;4935324;29;20028;-75
2021/08/30 07:14:52;;;;;;;13.38;9.30;;;;;;;15.02;100.00;98644.31;4926975;29;20457;-75
2021/08/30 07:17:17;;;;;;;9.93;8.93;;;;;;;15.10;100.00;98647.50;4931385;29;20048;-75
2021/08/30 07:19:42;;;;;;;12.93;10.25;;;;;;;15.11;100.00;98636.16;4933543;29;20050;-74
2021/08/30 07:22:08;;;;;;;15.75;9.55;;;;;;;15.02;100.00;98641.72;4934201;29;20163;-74
2021/08/30 07:24:33;;;;;;;11.88;9.63;;;;;;;15.05;100.00;98643.38;4935112;29;20071;-74
2021/08/30 07:27:02;;;;;;;14.40;10.40;;;;;;;14.91;100.00;98636.06;4934639;29;20023;-74
2021/08/30 07:29:28;;;;;;;13.17;10.13;;;;;;;14.64;100.00;98636.16;4934394;29;20491;-74
2021/08/30 07:31:53;;;;;;;11.55;9.43;;;;;;;14.77;100.00;98643.56;4934651;29;20267;-74
2021/08/30 07:34:19;;;;;;;13.00;9.82;;;;;;;14.80;100.00;98648.66;4934750;29;20397;-73
2021/08/30 07:36:44;;;;;;;13.80;10.40;;;;;;;14.82;100.00;98647.69;4934419;29;20378;-73
2021/08/30 07:39:09;;;;;;;12.60;9.75;;;;;;;14.95;100.00;98647.25;4933961;29;20074;-73
2021/08/30 07:41:35;;;;;;;12.43;9.90;;;;;;;14.88;100.00;98651.81;4934711;29;20099;-74
2021/08/30 07:44:00;;;;;;;10.60;7.82;;;;;;;14.93;100.00;98649.03;4934679;29;20108;-73
2021/08/30 07:46:26;;;;;;;13.30;8.70;;;;;;;15.01;100.00;98663.50;4934601;29;20037;-73
2021/08/30 07:48:52;;;;;;;11.68;8.95;;;;;;;14.99;100.00;98654.91;4934776;29;20035;-73
2021/08/30 07:51:19;;;;;;;12.68;9.32;;;;;;;14.95;100.00;98658.53;4933580;29;20055;-73
2021/08/30 07:53:44;;;;;;;10.85;8.93;;;;;;;14.98;100.00;98662.75;4934099;29;20078;-78
2021/08/30 07:56:11;;;;;;;9.93;8.70;;;;;;;15.05;100.00;98659.88;4934282;29;20446;-77
2021/08/30 07:58:36;;;;;;;8.98;7.93;;;;;;;14.95;100.00;98671.56;4934293;29;20047;-78
2021/08/30 08:01:02;;;;;;;10.35;8.13;;;;;;;15.16;100.00;98668.13;4933940;29;20058;-74
2021/08/30 08:03:27;;;;;;;9.15;8.20;;;;;;;15.22;100.00;98668.81;4934351;29;20034;-74
2021/08/30 08:05:53;;;;;;;12.40;8.50;;;;;;;15.27;100.00;98666.88;4934244;29;20055;-74
2021/08/30 08:08:18;;;;;;;8.60;7.40;;;;;;;15.17;100.00;98676.81;4934535;29;20048;-74
2021/08/30 08:10:43;;;;;;;11.00;7.32;;;;;;;15.21;100.00;98674.94;4934589;29;20107;-74
2021/08/30 08:13:10;;;;;;;7.43;6.70;;;;;;;14.92;100.00;98674.28;4933304;29;20024;-74
2021/08/30 08:15:35;;;;;;;12.43;7.15;;;;;;;15.00;100.00;98681.84;4934064;29;20532;-74
2021/08/30 08:18:01;;;;;;;8.48;7.55;;;;;;;15.16;100.00;98678.56;4932667;29;20040;-74
2021/08/30 08:20:27;;;;;;;7.80;7.00;;;;;;;15.28;100.00;98676.41;4934543;29;20070;-74
2021/08/30 08:22:53;;;;;;;8.75;7.35;;;;;;;15.36;100.00;98680.41;4933891;29;20111;-74
2021/08/30 08:25:18;;;;;;;7.38;6.30;;;;;;;15.52;100.00;98685.03;4933823;29;20063;-74
2021/08/30 08:27:43;;;;;;;6.50;5.78;;;;;;;15.28;100.00;98692.06;4925307;28;20129;-74
2021/08/30 08:30:09;;;;;;;7.05;6.35;;;;;;;15.34;100.00;98678.78;4956172;28;20035;-74
2021/08/30 08:32:36;;;;;;;6.70;5.22;;;;;;;15.55;100.00;98683.16;4953406;28;20031;-74
2021/08/30 08:35:01;;;;;;;8.30;5.28;;;;;;;15.79;100.00;98696.19;4906740;28;20077;-74
2021/08/30 08:37:27;;;;;;;5.25;4.75;;;;;;;15.92;99.05;98695.63;4956893;28;20023;-74
2021/08/30 08:39:52;;;;;;;6.30;4.70;;;;;;;16.29;96.69;98698.47;4957146;28;20023;-75
2021/08/30 08:42:17;;;;;;;7.00;4.82;;;;;;;16.53;94.93;98702.63;4957032;28;20031;-74
2021/08/30 08:44:46;;;;;;;4.30;3.90;;;;;;;16.09;97.35;98702.75;4957039;28;20413;-74
2021/08/30 08:47:15;;;;;;;5.85;3.53;;;;;;;15.84;99.30;98702.06;4943747;28;20045;-74
2021/08/30 08:49:41;;;;;;;4.30;3.92;;;;;;;15.85;98.78;98709.00;4958258;28;20027;-74
2021/08/30 08:52:06;;;;;;;4.07;3.67;;;;;;;15.55;100.00;98701.44;4956837;28;20029;-74
2021/08/30 08:54:31;;;;;;;4.80;4.30;;;;;;;15.26;100.00;98704.34;4956903;28;20380;-74
2021/08/30 08:56:57;;;;;;;7.38;5.65;;;;;;;15.11;100.00;98710.97;4956483;28;20019;-74
2021/08/30 08:59:23;;;;;;;5.68;5.18;;;;;;;15.26;100.00;98710.41;4955158;28;20023;-74
2021/08/30 09:01:59;;;;;;;7.03;4.85;;;;;;;15.37;100.00;98712.59;4956824;28;20031;-74
2021/08/30 09:04:35;;;;;;;6.47;5.03;;;;;;;15.21;100.00;98711.50;4949983;29;20536;-74
2021/08/30 09:07:12;;;;;;;11.73;5.63;;;;;;;15.24;100.00;98706.16;4956380;28;20023;-74
2021/08/30 09:09:39;;;;;;;7.78;5.50;;;;;;;15.84;99.31;98702.06;4955918;28;20063;-74
2021/08/30 09:12:05;;;;;;;4.78;4.28;;;;;;;17.67;92.14;98693.94;4956288;28;20031;-74
2021/08/30 09:14:31;;;;;;;5.00;4.50;;;;;;;19.84;83.09;98694.03;4956685;28;20102;-74
2021/08/30 09:17:06;;;;;;;4.07;3.72;;;;;;;21.45;70.52;98701.03;4956246;28;20118;-74
2021/08/30 09:19:33;;;;;;;20.60;14.65;;;;;;;20.78;73.87;98712.13;4971232;28;20612;-74
2021/08/30 09:21:59;;;;;;;6.78;4.72;;;;;;;20.65;75.66;98711.22;4955212;28;20081;-74
2021/08/30 09:24:26;;;;;;;8.90;3.90;;;;;;;20.68;74.13;98713.63;4955659;28;20473;-74
2021/08/30 09:26:54;;;;;;;5.57;4.13;;;;;;;20.34;74.55;98706.88;4956371;28;20114;-74
2021/08/30 09:29:22;;;;;;;5.97;4.85;;;;;;;19.41;79.96;98709.56;4956422;28;20032;-74
2021/08/30 09:32:19;;;;;;;5.73;4.67;;;;;;;18.51;79.94;98717.78;4954646;29;20437;-74
2021/08/30 09:34:47;;;;;;;8.35;5.03;;;;;;;18.78;82.71;98714.72;4943662;29;20792;-74
2021/08/30 09:37:22;;;;;;;6.65;5.65;;;;;;;17.93;82.87;98712.84;4955007;28;20059;-75
2021/08/30 09:39:49;;;;;;;7.10;5.45;;;;;;;17.56;86.56;98711.97;4956301;28;20030;-74
2021/08/30 09:42:15;;;;;;;7.18;5.90;;;;;;;17.58;87.90;98714.50;4954863;28;20060;-74
2021/08/30 09:44:41;;;;;;;6.05;5.45;;;;;;;17.46;88.36;98715.94;4953461;28;20016;-74
2021/08/30 09:47:11;;;;;;;8.85;6.20;;;;;;;17.57;88.31;98712.81;4955365;28;20019;-74
2021/08/30 09:49:37;;;;;;;11.27;5.75;;;;;;;17.69;88.92;98706.97;4955950;28;20031;-74
2021/08/30 09:52:03;;;;;;;12.05;6.28;;;;;;;17.60;88.56;98713.53;4955756;28;20042;-74
2021/08/30 09:54:29;;;;;;;9.65;6.97;;;;;;;17.38;88.31;98721.53;4955913;28;20019;-74
2021/08/30 09:56:54;;;;;;;11.90;6.68;;;;;;;17.26;89.83;98721.25;4954831;28;20050;-74
2021/08/30 09:59:21;;;;;;;12.90;7.18;;;;;;;16.93;92.59;98727.09;4955805;28;20059;-74
2021/08/30 10:01:49;;;;;;;12.13;6.95;;;;;;;16.22;93.40;98718.78;4955630;28;20399;-74
2021/08/30 10:04:19;;;;;;;15.60;7.97;;;;;;;16.30;96.60;98721.09;4955470;28;20032;-74
2021/08/30 10:06:47;;;;;;;12.35;6.78;;;;;;;16.69;95.23;98724.63;4955022;28;20023;-75
2021/08/30 10:09:14;;;;;;;8.88;6.70;;;;;;;16.78;90.85;98717.28;4955290;28;20494;-75
2021/08/30 10:11:41;;;;;;;7.45;6.10;;;;;;;17.18;90.70;98722.44;4955540;28;20058;-75
2021/08/30 10:14:08;;;;;;;10.32;8.25;;;;;;;17.60;90.20;98718.75;4955288;28;20030;-75
2021/08/30 10:16:36;;;;;;;6.75;6.05;;;;;;;17.38;89.13;98723.31;4955220;28;20037;-74
2021/08/30 10:19:02;;;;;;;6.72;5.95;;;;;;;16.87;90.41;98722.13;4954067;28;20023;-74
2021/08/30 10:21:29;;;;;;;7.35;6.10;;;;;;;16.87;89.94;98722.13;4955078;28;20500;-75
2021/08/30 10:23:54;;;;;;;12.70;6.47;;;;;;;16.66;92.61;98719.50;4955377;28;20027;-75
2021/08/30 10:26:20;;;;;;;7.80;5.60;;;;;;;16.83;92.48;98726.66;4954871;28;20066;-75
2021/08/30 10:28:47;;;;;;;7.95;6.35;;;;;;;16.92;93.31;98726.25;4955161;28;20023;-75
2021/08/30 10:31:15;;;;;;;10.50;5.20;;;;;;;16.39;93.25;98728.53;4960478;23;20060;-73
2021/08/30 10:33:44;;;;;;;6.68;5.97;;;;;;;16.09;94.17;98722.81;4934820;29;20024;-72
2021/08/30 10:36:14;;;;;;;7.57;5.65;;;;;;;16.39;93.71;98726.78;4934989;29;20122;-73
2021/08/30 10:38:40;;;;;;;;;;;;;;;16.59;96.92;98732.94;4935885;29;20039;-73
2021/08/30 10:41:15;;;;;;;7.07;5.35;;;;;;;16.74;93.04;98731.44;4935056;29;19911;-73
2021/08/30 10:43:45;;;;;;;6.10;5.50;;;;;;;17.05;92.77;98737.00;4934337;29;20434;-73
2021/08/30 10:46:16;;;;;;;;;;;;;;;16.84;92.60;98730.13;4934842;29;20043;-73
2021/08/30 10:48:49;;;;;;;7.03;5.70;;;;;;;17.07;92.56;98734.34;4935540;29;19911;-73
2021/08/30 10:51:20;;;;;;;8.13;4.80;;;;;;;16.58;91.80;98734.69;4933887;29;20336;-73
2021/08/30 10:53:59;;;;;;;5.40;4.72;;;;;;;16.71;93.01;98745.47;4932524;29;20030;-73
2021/08/30 10:56:30;;;;;;;5.03;4.53;;;;;;;16.58;92.26;98742.53;4918824;29;20087;-72
2021/08/30 10:59:04;;;;;;;5.60;5.10;;;;;;;16.89;93.13;98741.25;4913388;29;20051;-73
2021/08/30 11:01:30;;;;;;;5.00;4.50;;;;;;;17.61;91.83;98741.41;4912340;29;20038;-73
2021/08/30 11:03:56;;;;;;;5.25;4.15;;;;;;;17.63;89.76;98739.56;4912888;29;20028;-73
2021/08/30 11:06:22;;;;;;;6.20;4.65;;;;;;;18.16;89.74;98728.28;4913968;29;20075;-73
2021/08/30 11:08:48;;;;;;;5.10;4.60;;;;;;;18.42;87.39;98723.50;4915506;29;20392;-73
2021/08/30 11:11:18;;;;;;;5.65;4.50;;;;;;;18.61;86.01;98726.88;4914714;29;20220;-73
2021/08/30 11:14:11;;;;;;;5.47;4.70;;;;;;;18.50;87.81;98730.06;4914956;29;20083;-73
2021/08/30 11:16:38;;;;;;;4.80;4.20;;;;;;;18.79;84.00;98729.53;4917344;29;20047;-73
2021/08/30 11:19:05;;;;;;;6.82;4.28;;;;;;;18.82;86.37;98729.38;4914972;29;20042;-73
2021/08/30 11:21:39;;;;;;;5.13;4.63;;;;;;;19.22;84.42;98728.94;4914548;29;20036;-73
2021/08/30 11:24:07;;;;;;;5.28;4.28;;;;;;;18.90;82.96;98737.66;4929664;29;20438;-73
2021/08/30 11:26:37;;;;;;;4.47;4.07;;;;;;;18.16;84.35;98743.16;4914037;29;20115;-73
2021/08/30 11:29:07;;;;;;;5.40;4.55;;;;;;;17.21;88.51;98747.63;4914638;29;20035;-73
2021/08/30 11:31:39;;;;;;;5.90;5.32;;;;;;;17.16;91.10;98758.34;4910621;29;20035;-73
2021/08/30 11:34:06;;;;;;;5.75;5.25;;;;;;;16.87;91.70;98759.59;4911486;29;20188;-73
2021/08/30 11:36:48;;;;;;;6.80;5.88;;;;;;;16.97;92.45;98760.09;4907487;29;20028;-73
2021/08/30 11:39:19;;;;;;;8.88;6.22;;;;;;;17.01;91.58;98753.78;4907612;29;20036;-73
2021/08/30 11:41:50;;;;;;;7.55;5.82;;;;;;;17.03;92.30;98759.81;4904184;29;20114;-73
2021/08/30 11:44:16;;;;;;;6.70;6.00;;;;;;;17.90;90.86;98749.69;4900949;29;20091;-73
2021/08/30 11:46:48;;;;;;;10.70;6.40;;;;;;;17.32;91.32;98757.63;4899610;29;20031;-73
2021/08/30 11:49:14;;;;;;;7.78;5.88;;;;;;;18.34;87.18;98752.75;4911277;29;20036;-73
2021/08/30 11:51:44;;;;;;;7.72;6.03;;;;;;;18.74;86.23;98743.72;4921868;29;20032;-73
2021/08/30 11:54:26;;;;;;;9.95;5.78;;;;;;;18.63;83.80;98740.78;4921780;29;20397;-73
2021/08/30 11:56:57;;;;;;;8.45;5.93;;;;;;;18.42;85.66;98747.09;4922111;29;20092;-73
2021/08/30 11:59:31;;;;;;;9.20;5.72;;;;;;;18.42;85.20;98747.09;4920430;29;20028;-73
2021/08/30 12:01:57;;;;;;;13.48;6.57;;;;;;;18.43;84.78;98746.22;4926392;29;20119;-74
2021/08/30 12:04:27;;;;;;;7.15;6.43;;;;;;;18.23;87.57;98755.91;4929818;29;20020;-73
2021/08/30 12:06:55;;;;;;;7.13;5.80;;;;;;;17.86;88.87;98767.34;4926830;29;20028;-73
2021/08/30 12:09:21;;;;;;;8.27;5.50;;;;;;;17.84;87.37;98773.56;4927455;29;20493;-73
2021/08/30 12:11:52;;;;;;;6.65;5.95;;;;;;;18.11;86.67;98767.00;4931189;28;20032;-73
2021/08/30 12:14:18;;;;;;;8.15;6.50;;;;;;;17.23;86.83;98772.00;4933519;29;21779;-73
2021/08/30 12:16:46;;;;;;;6.55;5.65;;;;;;;17.71;86.82;98776.75;4934458;29;20102;-73
2021/08/30 12:19:11;;;;;;;6.65;5.78;;;;;;;18.09;86.88;98768.88;4932562;29;20059;-73
2021/08/30 12:21:39;;;;;;;8.13;5.97;;;;;;;18.49;83.27;98766.88;4928956;29;20519;-73
2021/08/30 12:24:06;;;;;;;10.07;6.63;;;;;;;18.34;82.17;98765.03;4929012;29;20055;-74
2021/08/30 12:26:31;;;;;;;7.95;6.28;;;;;;;18.08;83.25;98767.13;4930948;29;20072;-74
2021/08/30 12:28:59;;;;;;;7.60;6.90;;;;;;;18.06;84.58;98763.75;4931411;29;20555;-74
2021/08/30 12:31:30;;;;;;;9.25;6.70;;;;;;;18.27;83.69;98766.25;4929852;29;20183;-74
2021/08/30 12:34:06;;;;;;;6.47;5.68;;;;;;;18.27;83.35;98766.25;4929860;29;20038;-74
2021/08/30 12:36:32;;;;;;;6.00;5.30;;;;;;;17.73;84.34;98767.06;4930397;29;20082;-74
2021/08/30 12:38:57;;;;;;;6.95;5.45;;;;;;;18.43;81.89;98761.94;4931393;29;20038;-74
2021/08/30 12:41:23;;;;;;;7.03;5.40;;;;;;;18.19;82.22;98758.78;4931395;29;20020;-75
2021/08/30 12:43:48;;;;;;;6.90;5.60;;;;;;;18.65;82.93;98773.03;4931534;29;20398;-74
2021/08/30 12:46:15;;;;;;;6.28;5.07;;;;;;;19.11;77.84;98770.69;4930237;29;20066;-76
2021/08/30 12:48:41;;;;;;;5.93;4.93;;;;;;;18.73;80.61;98773.53;4931073;29;20095;-73
2021/08/30 12:51:07;;;;;;;5.50;4.65;;;;;;;18.22;82.15;98777.81;4933323;29;20131;-74
2021/08/30 12:53:32;;;;;;;5.88;5.28;;;;;;;18.64;82.30;98771.34;4932773;29;20473;-73
2021/08/30 12:55:58;;;;;;;5.72;5.03;;;;;;;18.44;82.20;98774.97;4933821;29;20026;-73
2021/08/30 12:58:24;;;;;;;5.50;4.80;;;;;;;18.23;83.39;98776.91;4933223;29;20032;-73
2021/08/30 13:00:50;;;;;;;5.80;4.90;;;;;;;18.55;82.44;98777.06;4934073;29;20075;-74
2021/08/30 13:03:15;;;;;;;5.90;5.30;;;;;;;18.65;83.58;98772.19;4933746;29;20038;-73
2021/08/30 13:05:41;;;;;;;6.43;4.65;;;;;;;18.78;81.10;98773.31;4933957;29;20020;-73
2021/08/30 13:08:10;;;;;;;4.68;4.20;;;;;;;18.47;81.86;98779.25;4933987;29;20110;-73
2021/08/30 13:10:35;;;;;;;5.35;4.68;;;;;;;18.16;81.52;98775.50;4932050;29;20440;-73
2021/08/30 13:13:01;;;;;;;5.53;4.57;;;;;;;18.66;82.68;98768.63;4935360;29;20027;-74
2021/08/30 13:15:26;;;;;;;6.38;4.80;;;;;;;18.31;81.40;98762.53;4941284;28;20532;-74
2021/08/30 13:17:52;;;;;;;4.57;4.13;;;;;;;18.21;80.28;98764.78;4934019;29;20072;-74
2021/08/30 13:20:18;;;;;;;4.57;3.88;;;;;;;18.35;82.43;98769.34;4934301;28;20027;-73
2021/08/30 13:22:45;;;;;;;4.95;4.15;;;;;;;18.12;83.48;98767.84;4936893;29;20052;-73
2021/08/30 13:25:14;;;;;;;10.30;4.70;;;;;;;17.98;85.06;98774.59;4937422;29;20067;-74
2021/08/30 13:27:42;;;;;;;6.30;5.13;;;;;;;18.54;84.69;98779.78;4937302;29;20027;-73
2021/08/30 13:30:09;;;;;;;5.85;4.97;;;;;;;18.22;83.07;98780.44;4937114;29;20034;-73
2021/08/30 13:32:34;;;;;;;5.85;5.20;;;;;;;17.75;85.36;98784.50;4936135;29;20398;-75
2021/08/30 13:35:00;;;;;;;5.63;5.13;;;;;;;17.63;85.99;98780.63;4937144;29;20034;-74
2021/08/30 13:37:25;;;;;;;6.00;5.15;;;;;;;17.57;85.44;98792.25;4937096;29;20035;-80
2021/08/30 13:39:51;;;;;;;5.57;4.57;;;;;;;17.55;85.49;98783.63;4935957;29;20374;-74
2021/08/30 13:42:16;;;;;;;5.03;4.47;;;;;;;17.51;86.56;98782.06;4937079;29;20067;-73
2021/08/30 13:44:42;;;;;;;6.43;4.22;;;;;;;17.59;87.27;98784.31;4936533;29;20020;-75
2021/08/30 13:47:07;;;;;;;7.68;4.80;;;;;;;17.27;88.79;98788.44;4935622;29;20043;-73
2021/08/30 13:49:33;;;;;;;26.05;21.15;;;;;;;17.46;90.89;98790.13;4936793;29;20031;-77
2021/08/30 13:51:58;;;;;;;5.78;4.35;;;;;;;17.25;89.37;98790.25;4936864;29;20039;-74
2021/08/30 13:54:24;;;;;;;4.05;3.63;;;;;;;16.91;89.30;98791.75;4936459;29;20429;-73
2021/08/30 13:56:50;;;;;;;4.40;3.42;;;;;;;17.46;87.98;98799.78;4936040;29;20030;-73
2021/08/30 13:59:15;;;;;;;6.38;3.78;;;;;;;16.93;90.55;98790.78;4936612;29;20043;-75
2021/08/30 14:01:41;;;;;;;6.85;3.70;;;;;;;17.73;89.12;98792.41;4936393;29;20024;-80
2021/08/30 14:04:06;;;;;;;3.90;3.28;;;;;;;18.18;85.82;98784.16;4936467;29;20062;-80
2021/08/30 14:06:34;;;;;;;3.50;3.20;;;;;;;18.18;83.87;98791.13;4935851;29;20016;-73
2021/08/30 14:08:59;;;;;;;5.43;3.67;;;;;;;18.20;86.31;98787.53;4936249;29;20359;-73
2021/08/30 14:11:25;;;;;;;3.70;3.28;;;;;;;18.22;84.09;98785.66;4934765;29;20035;-74
2021/08/30 14:13:50;;;;;;;3.35;3.05;;;;;;;18.06;85.05;98795.22;4936524;29;20035;-73
2021/08/30 14:16:15;;;;;;;4.25;3.00;;;;;;;17.98;84.94;98798.19;4936033;29;20078;-74
2021/08/30 14:18:41;;;;;;;3.58;3.10;;;;;;;17.28;87.16;98808.47;4934345;29;20503;-73
2021/08/30 14:21:06;;;;;;;8.10;3.50;;;;;;;16.83;89.62;98806.94;4925686;29;20553;-73
2021/08/30 14:23:32;;;;;;;33.55;19.60;;;;;;;17.24;88.18;98799.88;4917486;29;20024;-80
2021/08/30 14:25:58;;;;;;;3.50;3.20;;;;;;;17.47;86.88;98801.47;4915846;29;20024;-73
2021/08/30 14:28:23;;;;;;;3.60;3.30;;;;;;;17.67;85.34;98796.16;4915882;29;20119;-73
2021/08/30 14:30:48;;;;;;;4.57;3.35;;;;;;;17.58;87.02;98796.56;4926012;28;20106;-73
2021/08/30 14:33:14;;;;;;;5.05;3.70;;;;;;;18.18;81.63;98794.63;4934465;28;20390;-73
2021/08/30 14:35:39;;;;;;;4.60;3.55;;;;;;;18.50;82.46;98792.19;4934430;29;20019;-73
2021/08/30 14:38:04;;;;;;;5.80;4.35;;;;;;;18.85;77.81;98794.81;4933239;28;21096;-73
2021/08/30 14:40:30;;;;;;;4.53;3.45;;;;;;;18.98;78.41;98795.91;4934098;28;20031;-73
2021/08/30 14:42:57;;;;;;;3.58;3.15;;;;;;;18.94;77.31;98789.09;4934171;28;20492;-73
2021/08/30 14:45:23;;;;;;;4.25;3.53;;;;;;;19.03;76.93;98787.78;4933080;28;20031;-73
2021/08/30 14:47:48;;;;;;;4.78;3.25;;;;;;;18.78;80.96;98789.06;4934264;29;20507;-73
2021/08/30 14:50:14;;;;;;;5.78;3.20;;;;;;;18.63;77.99;98795.91;4934281;29;20086;-73
2021/08/30 14:52:39;;;;;;;4.80;3.58;;;;;;;18.68;79.81;98793.91;4933447;28;20437;-73
2021/08/30 14:55:05;;;;;;;4.75;3.63;;;;;;;18.50;78.94;98793.03;4934113;29;20020;-73
2021/08/30 14:57:31;;;;;;;7.25;3.78;;;;;;;18.11;81.58;98787.97;4932838;28;20036;-73
2021/08/30 14:59:56;;;;;;;4.22;3.70;;;;;;;18.33;81.02;98800.91;4933861;29;20031;-73
2021/08/30 15:02:22;;;;;;;7.05;4.15;;;;;;;18.30;79.37;98797.56;4933938;28;20086;-73
2021/08/30 15:04:47;;;;;;;5.35;4.22;;;;;;;18.23;81.57;98797.03;4933427;29;20035;-74
2021/08/30 15:07:12;;;;;;;4.55;3.90;;;;;;;18.28;81.65;98796.81;4927541;28;20169;-73
2021/08/30 15:09:39;;;;;;;4.82;3.83;;;;;;;18.49;80.46;98798.38;4922934;28;20040;-74
2021/08/30 15:12:04;;;;;;;6.85;6.05;;;;;;;18.31;79.51;98805.38;4924223;28;20027;-73
2021/08/30 15:14:31;;;;;;;5.80;4.40;;;;;;;18.15;80.92;98805.25;4921853;28;20090;-72
2021/08/30 15:16:56;;;;;;;6.43;4.13;;;;;;;18.02;82.10;98806.78;4915952;28;20038;-72
2021/08/30 15:19:22;;;;;;;7.63;4.45;;;;;;;18.08;83.14;98803.84;4912576;28;20023;-72
2021/08/30 15:21:49;;;;;;;5.18;4.15;;;;;;;17.87;85.75;98804.88;4906918;28;20024;-72
2021/08/30 15:24:15;;;;;;;7.75;4.13;;;;;;;18.23;80.06;98797.03;4909573;28;20023;-72
2021/08/30 15:26:40;;;;;;;5.95;4.18;;;;;;;18.31;82.90;98804.50;4902139;28;20035;-72
2021/08/30 15:29:11;;;;;;;4.63;4.10;;;;;;;18.37;79.17;98806.84;4898118;28;20034;-72
2021/08/30 15:31:38;;;;;;;13.93;4.63;;;;;;;18.30;81.86;98797.56;4898720;28;20035;-72
2021/08/30 15:34:04;;;;;;;5.80;3.45;;;;;;;18.60;78.88;98809.16;4898838;28;20431;-72
2021/08/30 15:36:30;;;;;;;6.18;3.78;;;;;;;18.50;79.64;98800.06;4901043;28;20047;-72
2021/08/30 15:38:56;;;;;;;4.47;4.07;;;;;;;18.46;79.26;98809.00;4913373;28;20877;-72